createdAt,value
2019-04-25T00:00:52.624Z,63.58
2019-04-25T00:02:04.119Z,63.65
2019-04-25T00:03:08.262Z,63.81
2019-04-25T00:04:12.878Z,64.01
2019-04-25T00:05:17.596Z,63.76
2019-04-25T00:06:23.169Z,63.74
2019-04-25T00:07:27.840Z,63.56
2019-04-25T00:08:32.045Z,62.94
2019-04-25T00:09:42.723Z,63.23
2019-04-25T00:10:47.582Z,63.28
2019-04-25T00:11:52.996Z,62.49
2019-04-25T00:12:57.430Z,63.18
2019-04-25T00:14:02.274Z,62.68
2019-04-25T00:15:07.206Z,62.72
2019-04-25T00:16:11.690Z,62.37
2019-04-25T00:17:15.925Z,62.11
2019-04-25T00:18:21.966Z,62.59
2019-04-25T00:19:27.056Z,62.09
2019-04-25T00:20:33.089Z,61.77
2019-04-25T00:21:45.032Z,61.58
2019-04-25T00:22:53.786Z,61.50
2019-04-25T00:23:59.982Z,61.44
2019-04-25T00:25:23.350Z,61.67
2019-04-25T00:26:43.984Z,61.58
2019-04-25T00:27:47.567Z,61.59
2019-04-25T00:28:53.517Z,61.64
2019-04-25T00:29:57.795Z,62.34
2019-04-25T00:31:02.738Z,62.87
2019-04-25T00:32:07.138Z,63.12
2019-04-25T00:33:11.665Z,63.89
2019-04-25T00:34:15.889Z,64.10
2019-04-25T00:35:21.745Z,64.10
2019-04-25T00:36:25.858Z,63.94
2019-04-25T00:37:30.026Z,63.71
2019-04-25T00:38:34.277Z,63.22
2019-04-25T00:39:38.513Z,62.96
2019-04-25T00:40:43.522Z,62.34
2019-04-25T00:41:49.209Z,62.34
2019-04-25T00:42:53.882Z,62.11
2019-04-25T00:43:59.177Z,61.73
2019-04-25T00:45:06.699Z,61.73
2019-04-25T00:46:11.390Z,61.62
2019-04-25T00:47:16.698Z,61.26
2019-04-25T00:48:22.485Z,61.26
2019-04-25T00:49:27.115Z,61.00
2019-04-25T00:50:31.979Z,61.15
2019-04-25T00:51:36.281Z,61.10
2019-04-25T00:52:43.547Z,60.98
2019-04-25T00:53:48.527Z,60.91
2019-04-25T00:54:53.517Z,61.15
2019-04-25T00:55:57.763Z,61.21
2019-04-25T00:57:02.225Z,61.41
2019-04-25T00:58:08.426Z,61.91
2019-04-25T00:59:14.247Z,61.75
2019-04-25T01:00:30.239Z,61.69
2019-04-25T01:01:54.237Z,61.54
2019-04-25T01:03:01.627Z,61.88
2019-04-25T01:04:06.320Z,62.27
2019-04-25T01:05:11.907Z,62.46
2019-04-25T01:06:16.639Z,62.62
2019-04-25T01:07:22.418Z,62.80
2019-04-25T01:08:26.989Z,62.66
2019-04-25T01:09:32.322Z,62.38
2019-04-25T01:10:36.959Z,62.30
2019-04-25T01:11:44.349Z,62.25
2019-04-25T01:12:47.145Z,62.01
2019-04-25T01:13:52.478Z,61.68
2019-04-25T01:14:57.560Z,61.47
2019-04-25T01:16:03.934Z,61.16
2019-04-25T01:17:07.979Z,60.96
2019-04-25T01:18:13.792Z,60.67
2019-04-25T01:19:18.188Z,60.62
2019-04-25T01:20:23.862Z,60.37
2019-04-25T01:21:28.422Z,60.24
2019-04-25T01:22:34.342Z,59.95
2019-04-25T01:23:38.718Z,59.71
2019-04-25T01:24:43.929Z,59.68
2019-04-25T01:25:48.470Z,59.57
2019-04-25T01:26:53.800Z,59.27
2019-04-25T01:28:00.479Z,59.12
2019-04-25T01:29:05.399Z,59.04
2019-04-25T01:30:09.584Z,59.07
2019-04-25T01:31:15.545Z,58.97
2019-04-25T01:32:21.641Z,58.84
2019-04-25T01:33:26.979Z,58.81
2019-04-25T01:34:34.243Z,58.89
2019-04-25T01:35:49.403Z,59.00
2019-04-25T01:36:55.899Z,58.93
2019-04-25T01:38:20.891Z,58.85
2019-04-25T01:39:27.049Z,58.89
2019-04-25T01:40:35.874Z,59.07
2019-04-25T01:41:49.139Z,59.20
2019-04-25T01:43:00.588Z,59.25
2019-04-25T01:44:06.620Z,59.41
2019-04-25T01:45:10.875Z,59.49
2019-04-25T01:46:15.368Z,59.32
2019-04-25T01:47:20.911Z,59.53
2019-04-25T01:48:25.076Z,60.11
2019-04-25T01:49:29.383Z,60.61
2019-04-25T01:50:35.278Z,61.65
2019-04-25T01:51:40.723Z,62.23
2019-04-25T01:52:44.923Z,62.83
2019-04-25T01:53:49.182Z,63.21
2019-04-25T01:54:55.077Z,63.16
2019-04-25T01:56:04.126Z,62.89
2019-04-25T01:57:05.548Z,62.92
2019-04-25T01:58:09.742Z,62.56
2019-04-25T01:59:15.212Z,62.54
2019-04-25T02:00:21.311Z,62.96
2019-04-25T02:01:25.479Z,63.32
2019-04-25T02:02:30.255Z,63.17
2019-04-25T02:03:35.636Z,63.46
2019-04-25T02:04:40.007Z,63.14
2019-04-25T02:05:44.283Z,62.72
2019-04-25T02:06:48.657Z,62.67
2019-04-25T02:07:54.449Z,62.84
2019-04-25T02:08:59.451Z,62.68
2019-04-25T02:10:07.114Z,62.47
2019-04-25T02:11:24.859Z,62.52
2019-04-25T02:12:30.903Z,62.34
2019-04-25T02:13:35.821Z,62.01
2019-04-25T02:14:40.198Z,61.75
2019-04-25T02:15:44.434Z,61.81
2019-04-25T02:16:48.838Z,61.68
2019-04-25T02:17:56.889Z,61.62
2019-04-25T02:19:00.059Z,61.48
2019-04-25T02:20:06.239Z,61.31
2019-04-25T02:21:10.480Z,61.17
2019-04-25T02:22:16.274Z,60.97
2019-04-25T02:23:20.900Z,60.93
2019-04-25T02:24:25.108Z,60.81
2019-04-25T02:25:29.735Z,60.77
2019-04-25T02:26:34.259Z,60.72
2019-04-25T02:27:38.579Z,60.85
2019-04-25T02:28:43.719Z,60.99
2019-04-25T02:29:47.998Z,61.21
2019-04-25T02:30:53.640Z,61.30
2019-04-25T02:32:02.026Z,61.35
2019-04-25T02:33:08.819Z,61.30
2019-04-25T02:34:10.954Z,61.35
2019-04-25T02:35:15.285Z,61.69
2019-04-25T02:36:19.614Z,61.79
2019-04-25T02:37:25.678Z,61.74
2019-04-25T02:38:29.994Z,61.99
2019-04-25T02:39:36.844Z,62.42
2019-04-25T02:40:40.271Z,62.97
2019-04-25T02:41:44.665Z,63.16
2019-04-25T02:42:49.167Z,63.12
2019-04-25T02:43:57.923Z,63.20
2019-04-25T02:45:07.341Z,62.91
2019-04-25T02:46:27.305Z,62.64
2019-04-25T02:47:50.991Z,62.44
2019-04-25T02:48:59.595Z,62.31
2019-04-25T02:50:15.093Z,62.05
2019-04-25T02:51:24.493Z,61.95
2019-04-25T02:52:30.464Z,62.09
2019-04-25T02:53:39.368Z,62.36
2019-04-25T02:54:44.946Z,62.62
2019-04-25T02:55:49.726Z,62.98
2019-04-25T02:56:54.772Z,63.13
2019-04-25T02:58:00.384Z,63.21
2019-04-25T02:59:07.581Z,63.33
2019-04-25T03:00:24.841Z,63.05
2019-04-25T03:01:28.900Z,62.84
2019-04-25T03:02:34.386Z,62.93
2019-04-25T03:03:39.105Z,63.02
2019-04-25T03:04:44.515Z,63.20
2019-04-25T03:05:49.579Z,63.36
2019-04-25T03:06:55.372Z,63.37
2019-04-25T03:08:01.461Z,63.44
2019-04-25T03:09:09.307Z,63.28
2019-04-25T03:10:14.851Z,62.96
2019-04-25T03:11:19.457Z,62.98
2019-04-25T03:12:32.386Z,62.81
2019-04-25T03:13:29.551Z,62.61
2019-04-25T03:14:35.162Z,62.24
2019-04-25T03:15:39.902Z,62.17
2019-04-25T03:16:44.833Z,62.30
2019-04-25T03:17:49.493Z,62.62
2019-04-25T03:18:59.438Z,62.62
2019-04-25T03:20:08.074Z,62.86
2019-04-25T03:21:19.459Z,62.62
2019-04-25T03:22:26.647Z,62.29
2019-04-25T03:23:34.867Z,62.67
2019-04-25T03:24:38.544Z,62.59
2019-04-25T03:25:43.505Z,62.73
2019-04-25T03:26:47.928Z,62.82
2019-04-25T03:27:53.969Z,62.43
2019-04-25T03:28:58.832Z,62.02
2019-04-25T03:30:09.545Z,62.26
2019-04-25T03:31:15.805Z,61.77
2019-04-25T03:32:19.813Z,61.74
2019-04-25T03:33:25.748Z,61.97
2019-04-25T03:34:29.170Z,62.29
2019-04-25T03:35:35.107Z,62.10
2019-04-25T03:36:39.370Z,62.17
2019-04-25T03:37:43.748Z,61.90
2019-04-25T03:38:48.022Z,62.10
2019-04-25T03:39:53.568Z,62.04
2019-04-25T03:40:57.966Z,62.04
2019-04-25T03:42:04.885Z,61.81
2019-04-25T03:43:08.914Z,61.91
2019-04-25T03:44:13.958Z,61.94
2019-04-25T03:45:18.614Z,61.60
2019-04-25T03:46:23.369Z,61.56
2019-04-25T03:47:27.855Z,61.53
2019-04-25T03:48:36.471Z,61.72
2019-04-25T03:49:39.115Z,61.93
2019-04-25T03:50:44.176Z,61.97
2019-04-25T03:51:48.603Z,61.84
2019-04-25T03:52:54.037Z,61.88
2019-04-25T03:53:58.455Z,62.39
2019-04-25T03:55:05.176Z,62.78
2019-04-25T03:56:08.772Z,62.49
2019-04-25T03:57:14.525Z,62.72
2019-04-25T03:58:19.049Z,63.05
2019-04-25T03:59:24.299Z,63.10
2019-04-25T04:00:28.605Z,62.77
2019-04-25T04:01:34.282Z,62.76
2019-04-25T04:02:38.592Z,62.71
2019-04-25T04:03:44.126Z,63.01
2019-04-25T04:04:48.570Z,62.97
2019-04-25T04:05:54.031Z,62.65
2019-04-25T04:06:59.106Z,62.25
2019-04-25T04:08:05.155Z,61.84
2019-04-25T04:09:09.839Z,61.96
2019-04-25T04:10:15.491Z,61.64
2019-04-25T04:11:20.020Z,61.65
2019-04-25T04:12:24.414Z,61.72
2019-04-25T04:13:28.721Z,61.80
2019-04-25T04:14:33.823Z,61.61
2019-04-25T04:15:38.609Z,61.29
2019-04-25T04:16:44.573Z,61.13
2019-04-25T04:18:08.671Z,60.98
2019-04-25T04:19:14.736Z,60.82
2019-04-25T04:20:21.393Z,60.62
2019-04-25T04:21:27.493Z,60.56
2019-04-25T04:22:48.666Z,60.45
2019-04-25T04:24:00.185Z,60.29
2019-04-25T04:25:07.578Z,60.13
2019-04-25T04:26:13.696Z,60.04
2019-04-25T04:27:20.063Z,59.99
2019-04-25T04:28:24.324Z,59.85
2019-04-25T04:29:28.641Z,59.68
2019-04-25T04:30:33.950Z,59.51
2019-04-25T04:31:38.522Z,59.41
2019-04-25T04:32:44.137Z,59.34
2019-04-25T04:33:48.605Z,59.17
2019-04-25T04:34:53.742Z,59.04
2019-04-25T04:35:58.146Z,59.01
2019-04-25T04:37:03.703Z,58.93
2019-04-25T04:38:08.152Z,58.96
2019-04-25T04:39:13.867Z,58.97
2019-04-25T04:40:18.653Z,58.92
2019-04-25T04:41:23.949Z,58.88
2019-04-25T04:42:28.218Z,58.77
2019-04-25T04:43:34.192Z,58.96
2019-04-25T04:44:38.397Z,58.89
2019-04-25T04:45:44.995Z,58.72
2019-04-25T04:46:48.470Z,58.72
2019-04-25T04:47:53.328Z,58.56
2019-04-25T04:48:57.614Z,58.59
2019-04-25T04:50:03.745Z,58.64
2019-04-25T04:51:08.951Z,58.63
2019-04-25T04:52:14.718Z,59.03
2019-04-25T04:53:19.578Z,59.12
2019-04-25T04:54:23.746Z,59.47
2019-04-25T04:55:28.138Z,59.60
2019-04-25T04:56:34.228Z,59.61
2019-04-25T04:57:38.456Z,59.61
2019-04-25T04:58:43.239Z,59.77
2019-04-25T04:59:47.669Z,59.77
2019-04-25T05:00:53.603Z,59.65
2019-04-25T05:01:59.760Z,59.54
2019-04-25T05:03:06.534Z,59.64
2019-04-25T05:04:19.298Z,59.78
2019-04-25T05:05:25.177Z,59.85
2019-04-25T05:06:41.144Z,60.12
2019-04-25T05:07:47.118Z,60.47
2019-04-25T05:08:53.218Z,61.06
2019-04-25T05:09:59.013Z,61.07
2019-04-25T05:11:04.088Z,61.02
2019-04-25T05:12:08.502Z,61.07
2019-04-25T05:13:15.378Z,61.06
2019-04-25T05:14:19.506Z,61.16
2019-04-25T05:15:24.822Z,61.01
2019-04-25T05:16:29.089Z,60.83
2019-04-25T05:17:34.227Z,60.67
2019-04-25T05:18:40.087Z,60.35
2019-04-25T05:19:45.274Z,60.20
2019-04-25T05:20:49.408Z,60.06
2019-04-25T05:21:53.766Z,60.00
2019-04-25T05:22:58.017Z,59.94
2019-04-25T05:24:04.145Z,60.06
2019-04-25T05:25:08.459Z,60.05
2019-04-25T05:26:14.594Z,59.96
2019-04-25T05:27:32.327Z,59.88
2019-04-25T05:28:24.721Z,59.93
2019-04-25T05:29:28.961Z,60.03
2019-04-25T05:30:44.018Z,59.99
2019-04-25T05:31:51.147Z,60.20
2019-04-25T05:32:55.370Z,60.88
2019-04-25T05:33:59.540Z,60.25
2019-04-25T05:35:06.621Z,59.98
2019-04-25T05:36:11.160Z,59.80
2019-04-25T05:37:16.321Z,59.79
2019-04-25T05:38:20.621Z,59.59
2019-04-25T05:39:25.176Z,59.66
2019-04-25T05:40:29.582Z,59.75
2019-04-25T05:41:35.995Z,59.69
2019-04-25T05:42:44.297Z,59.48
2019-04-25T05:43:48.934Z,59.71
2019-04-25T05:44:54.098Z,59.84
2019-04-25T05:45:58.624Z,60.24
2019-04-25T05:47:04.167Z,60.36
2019-04-25T05:48:08.484Z,60.39
2019-04-25T05:49:13.827Z,60.42
2019-04-25T05:50:18.730Z,60.46
2019-04-25T05:51:23.969Z,60.50
2019-04-25T05:52:30.396Z,60.50
2019-04-25T05:53:35.574Z,60.66
2019-04-25T05:54:39.867Z,61.47
2019-04-25T05:55:44.287Z,61.33
2019-04-25T05:56:48.554Z,61.04
2019-04-25T05:57:53.589Z,61.07
2019-04-25T05:58:57.905Z,60.74
2019-04-25T06:00:03.635Z,60.50
2019-04-25T06:01:08.908Z,59.90
2019-04-25T06:02:14.072Z,59.92
2019-04-25T06:03:19.322Z,60.21
2019-04-25T06:04:24.669Z,60.34
2019-04-25T06:05:29.169Z,60.71
2019-04-25T06:06:36.574Z,60.99
2019-04-25T06:07:39.697Z,60.48
2019-04-25T06:08:54.839Z,60.29
2019-04-25T06:10:17.187Z,60.55
2019-04-25T06:11:35.937Z,59.99
2019-04-25T06:12:43.425Z,59.87
2019-04-25T06:13:49.448Z,59.94
2019-04-25T06:14:54.614Z,59.94
2019-04-25T06:16:01.495Z,60.02
2019-04-25T06:17:09.011Z,59.37
2019-04-25T06:18:14.926Z,58.83
2019-04-25T06:19:37.255Z,58.72
2019-04-25T06:20:41.514Z,58.82
2019-04-25T06:21:46.365Z,58.78
2019-04-25T06:22:57.955Z,58.93
2019-04-25T06:24:16.026Z,59.25
2019-04-25T06:25:27.070Z,58.54
2019-04-25T06:26:35.052Z,58.99
2019-04-25T06:27:38.063Z,58.92
2019-04-25T06:28:52.192Z,58.99
2019-04-25T06:29:58.107Z,58.56
2019-04-25T06:30:56.313Z,58.62
2019-04-25T06:32:07.889Z,58.48
2019-04-25T06:33:06.668Z,58.81
2019-04-25T06:34:10.931Z,58.45
2019-04-25T06:35:15.324Z,58.92
2019-04-25T06:36:21.079Z,59.30
2019-04-25T06:37:25.869Z,59.60
2019-04-25T06:38:32.029Z,59.69
2019-04-25T06:39:39.124Z,59.68
2019-04-25T06:40:43.810Z,59.46
2019-04-25T06:41:48.223Z,59.03
2019-04-25T06:42:53.577Z,58.79
2019-04-25T06:43:59.992Z,59.24
2019-04-25T06:45:18.456Z,59.47
2019-04-25T06:46:25.692Z,58.37
2019-04-25T06:47:37.742Z,58.04
2019-04-25T06:48:53.437Z,58.35
2019-04-25T06:49:57.790Z,58.41
2019-04-25T06:51:03.521Z,58.20
2019-04-25T06:52:07.834Z,58.38
2019-04-25T06:53:13.604Z,58.48
2019-04-25T06:54:18.823Z,57.44
2019-04-25T06:55:25.999Z,57.05
2019-04-25T06:56:29.819Z,57.31
2019-04-25T06:57:34.261Z,57.88
2019-04-25T06:58:38.765Z,57.85
2019-04-25T06:59:43.742Z,58.14
2019-04-25T07:00:58.196Z,58.67
2019-04-25T07:01:56.201Z,58.81
2019-04-25T07:03:00.417Z,59.41
2019-04-25T07:04:04.689Z,59.49
2019-04-25T07:05:10.980Z,60.08
2019-04-25T07:06:15.302Z,58.18
2019-04-25T07:07:20.461Z,56.37
2019-04-25T07:08:25.759Z,56.89
2019-04-25T07:09:34.270Z,57.32
2019-04-25T07:10:38.835Z,57.86
2019-04-25T07:11:43.988Z,56.94
2019-04-25T07:12:48.528Z,55.41
2019-04-25T07:13:53.682Z,55.84
2019-04-25T07:14:57.865Z,55.23
2019-04-25T07:16:03.068Z,55.95
2019-04-25T07:17:08.425Z,55.75
2019-04-25T07:18:13.976Z,56.05
2019-04-25T07:19:18.393Z,55.40
2019-04-25T07:20:26.107Z,55.26
2019-04-25T07:21:30.282Z,54.93
2019-04-25T07:22:36.278Z,55.37
2019-04-25T07:23:40.710Z,55.09
2019-04-25T07:24:45.010Z,54.53
2019-04-25T07:25:50.941Z,54.49
2019-04-25T07:27:13.776Z,53.84
2019-04-25T07:28:36.055Z,53.71
2019-04-25T07:29:43.304Z,54.58
2019-04-25T07:30:52.714Z,54.82
2019-04-25T07:32:03.922Z,55.54
2019-04-25T07:33:13.921Z,55.60
2019-04-25T07:34:19.786Z,55.74
2019-04-25T07:35:25.294Z,53.98
2019-04-25T07:36:29.679Z,53.38
2019-04-25T07:37:34.944Z,53.97
2019-04-25T07:38:40.142Z,54.52
2019-04-25T07:39:44.457Z,54.43
2019-04-25T07:40:48.785Z,54.80
2019-04-25T07:41:54.167Z,54.55
2019-04-25T07:42:59.549Z,53.14
2019-04-25T07:44:04.600Z,52.22
2019-04-25T07:45:08.822Z,52.14
2019-04-25T07:46:13.546Z,52.83
2019-04-25T07:47:17.898Z,51.64
2019-04-25T07:48:23.278Z,51.59
2019-04-25T07:49:28.526Z,52.26
2019-04-25T07:50:34.321Z,51.82
2019-04-25T07:51:39.999Z,51.32
2019-04-25T07:52:44.442Z,52.14
2019-04-25T07:53:49.600Z,51.54
2019-04-25T07:54:53.979Z,51.40
2019-04-25T07:55:58.196Z,51.55
2019-04-25T07:57:03.626Z,51.53
2019-04-25T07:58:08.135Z,51.64
2019-04-25T07:59:13.922Z,50.35
2019-04-25T08:00:19.272Z,50.23
2019-04-25T08:01:23.666Z,49.46
2019-04-25T08:02:28.142Z,49.44
2019-04-25T08:03:34.122Z,50.61
2019-04-25T08:04:38.443Z,50.95
2019-04-25T08:05:44.008Z,49.32
2019-04-25T08:06:48.259Z,49.37
2019-04-25T08:07:53.617Z,50.81
2019-04-25T08:08:57.845Z,49.77
2019-04-25T08:10:02.201Z,49.70
2019-04-25T08:11:08.502Z,49.83
2019-04-25T08:12:13.354Z,49.25
2019-04-25T08:13:17.787Z,49.07
2019-04-25T08:14:30.158Z,49.33
2019-04-25T08:15:41.746Z,49.29
2019-04-25T08:16:50.699Z,48.83
2019-04-25T08:17:56.510Z,48.79
2019-04-25T08:19:03.433Z,48.69
2019-04-25T08:20:08.424Z,48.99
2019-04-25T08:21:12.644Z,48.92
2019-04-25T08:22:16.776Z,49.34
2019-04-25T08:23:21.235Z,50.20
2019-04-25T08:24:25.403Z,49.89
2019-04-25T08:25:30.819Z,48.28
2019-04-25T08:26:36.208Z,49.18
2019-04-25T08:27:40.598Z,49.52
2019-04-25T08:28:55.002Z,47.41
2019-04-25T08:29:51.726Z,47.21
2019-04-25T08:30:55.973Z,47.88
2019-04-25T08:32:00.505Z,47.99
2019-04-25T08:33:05.034Z,47.62
2019-04-25T08:34:09.209Z,46.70
2019-04-25T08:35:13.897Z,46.39
2019-04-25T08:36:19.250Z,46.52
2019-04-25T08:37:24.121Z,47.38
2019-04-25T08:38:28.314Z,46.78
2019-04-25T08:39:34.102Z,45.51
2019-04-25T08:40:38.977Z,46.26
2019-04-25T08:41:45.730Z,46.82
2019-04-25T08:42:50.011Z,46.37
2019-04-25T08:43:54.558Z,46.53
2019-04-25T08:44:58.951Z,46.32
2019-04-25T08:46:04.217Z,45.75
2019-04-25T08:47:08.475Z,46.64
2019-04-25T08:48:13.599Z,46.30
2019-04-25T08:49:28.832Z,45.21
2019-04-25T08:50:44.455Z,45.01
2019-04-25T08:51:50.670Z,45.14
2019-04-25T08:52:54.907Z,46.16
2019-04-25T08:54:00.745Z,47.48
2019-04-25T08:55:11.571Z,47.94
2019-04-25T08:56:17.373Z,46.75
2019-04-25T08:57:25.674Z,47.26
2019-04-25T08:58:35.343Z,47.06
2019-04-25T08:59:47.220Z,46.18
2019-04-25T09:01:01.403Z,46.66
2019-04-25T09:02:24.135Z,47.37
2019-04-25T09:03:29.951Z,45.36
2019-04-25T09:04:36.860Z,45.22
2019-04-25T09:05:45.941Z,45.14
2019-04-25T09:06:48.617Z,45.79
2019-04-25T09:07:54.358Z,45.56
2019-04-25T09:08:58.593Z,45.00
2019-04-25T09:10:03.573Z,44.31
2019-04-25T09:11:08.870Z,44.89
2019-04-25T09:12:14.089Z,45.19
2019-04-25T09:13:18.229Z,44.95
2019-04-25T09:14:22.475Z,44.96
2019-04-25T09:15:26.648Z,44.94
2019-04-25T09:16:30.938Z,45.05
2019-04-25T09:17:35.854Z,44.69
2019-04-25T09:18:41.081Z,44.94
2019-04-25T09:19:45.590Z,44.52
2019-04-25T09:20:49.731Z,43.65
2019-04-25T09:21:53.907Z,43.48
2019-04-25T09:22:58.519Z,43.31
2019-04-25T09:24:03.368Z,43.93
2019-04-25T09:25:07.695Z,43.97
2019-04-25T09:26:11.857Z,44.38
2019-04-25T09:27:17.001Z,43.86
2019-04-25T09:28:21.204Z,43.99
2019-04-25T09:29:25.339Z,44.18
2019-04-25T09:30:29.603Z,44.14
2019-04-25T09:31:37.058Z,42.93
2019-04-25T09:32:39.963Z,42.63
2019-04-25T09:33:46.626Z,43.24
2019-04-25T09:34:50.977Z,43.03
2019-04-25T09:35:55.225Z,41.91
2019-04-25T09:36:59.470Z,42.11
2019-04-25T09:38:03.965Z,42.27
2019-04-25T09:39:23.667Z,41.98
2019-04-25T09:40:27.901Z,42.41
2019-04-25T09:41:33.544Z,41.26
2019-04-25T09:42:39.383Z,41.22
2019-04-25T09:43:45.591Z,41.67
2019-04-25T09:44:51.046Z,41.80
2019-04-25T09:45:56.950Z,41.71
2019-04-25T09:47:01.258Z,41.94
2019-04-25T09:48:23.139Z,42.25
2019-04-25T09:49:39.061Z,41.66
2019-04-25T09:50:47.760Z,41.95
2019-04-25T09:52:03.378Z,41.18
2019-04-25T09:53:07.835Z,41.07
2019-04-25T09:54:19.638Z,41.33
2019-04-25T09:55:31.706Z,40.71
2019-04-25T09:56:38.305Z,40.26
2019-04-25T09:57:49.594Z,40.21
2019-04-25T09:59:07.308Z,40.76
2019-04-25T10:01:26.200Z,40.98
2019-04-25T10:02:30.652Z,41.12
2019-04-25T10:03:34.836Z,41.01
2019-04-25T10:04:39.212Z,41.14
2019-04-25T10:05:43.410Z,40.83
2019-04-25T10:06:47.738Z,40.83
2019-04-25T10:07:53.334Z,40.82
2019-04-25T10:08:58.557Z,40.85
2019-04-25T10:10:03.749Z,40.77
2019-04-25T10:11:08.231Z,40.31
2019-04-25T10:12:12.955Z,39.96
2019-04-25T10:13:18.341Z,39.96
2019-04-25T10:14:34.789Z,39.55
2019-04-25T10:16:04.192Z,40.28
2019-04-25T10:17:09.236Z,40.19
2019-04-25T10:18:14.288Z,40.27
2019-04-25T10:19:18.656Z,39.49
2019-04-25T10:20:23.214Z,39.64
2019-04-25T10:21:27.560Z,39.78
2019-04-25T10:22:31.799Z,40.08
2019-04-25T10:23:46.424Z,39.90
2019-04-25T10:25:00.175Z,39.44
2019-04-25T10:25:58.551Z,39.77
2019-04-25T10:27:03.769Z,39.52
2019-04-25T10:28:08.359Z,39.11
2019-04-25T10:29:12.534Z,38.88
2019-04-25T10:30:23.130Z,38.47
2019-04-25T10:31:24.083Z,38.64
2019-04-25T10:32:28.499Z,38.45
2019-04-25T10:33:32.671Z,38.34
2019-04-25T10:34:38.003Z,38.85
2019-04-25T10:35:50.651Z,38.00
2019-04-25T10:36:48.980Z,38.14
2019-04-25T10:37:53.795Z,38.31
2019-04-25T10:39:07.666Z,38.42
2019-04-25T10:40:07.781Z,38.35
2019-04-25T10:41:14.079Z,38.38
2019-04-25T10:42:18.307Z,37.52
2019-04-25T10:43:23.923Z,38.01
2019-04-25T10:44:28.350Z,38.17
2019-04-25T10:45:34.040Z,38.44
2019-04-25T10:46:38.262Z,38.40
2019-04-25T10:47:44.268Z,38.85
2019-04-25T10:48:48.402Z,38.93
2019-04-25T10:49:53.649Z,38.98
2019-04-25T10:50:58.502Z,39.06
2019-04-25T10:52:02.746Z,38.60
2019-04-25T10:53:07.129Z,38.13
2019-04-25T10:54:11.390Z,38.45
2019-04-25T10:55:15.657Z,38.45
2019-04-25T10:56:19.922Z,38.59
2019-04-25T10:57:24.956Z,39.04
2019-04-25T10:58:29.964Z,39.08
2019-04-25T10:59:34.411Z,39.02
2019-04-25T11:00:46.145Z,39.06
2019-04-25T11:01:49.513Z,38.53
2019-04-25T11:02:54.959Z,38.22
2019-04-25T11:04:04.702Z,38.20
2019-04-25T11:05:11.129Z,38.09
2019-04-25T11:06:18.470Z,37.91
2019-04-25T11:07:23.883Z,37.74
2019-04-25T11:08:28.095Z,38.21
2019-04-25T11:09:34.308Z,38.12
2019-04-25T11:10:38.649Z,37.90
2019-04-25T11:11:43.142Z,38.07
2019-04-25T11:12:47.700Z,37.96
2019-04-25T11:13:52.445Z,37.85
2019-04-25T11:14:57.834Z,37.63
2019-04-25T11:16:03.523Z,37.89
2019-04-25T11:17:07.871Z,38.29
2019-04-25T11:18:13.160Z,38.10
2019-04-25T11:19:18.102Z,37.36
2019-04-25T11:20:26.973Z,37.64
2019-04-25T11:21:31.336Z,38.25
2019-04-25T11:22:35.507Z,38.25
2019-04-25T11:23:40.527Z,37.93
2019-04-25T11:24:46.005Z,37.79
2019-04-25T11:25:50.323Z,38.12
2019-04-25T11:26:55.386Z,37.72
2019-04-25T11:27:59.706Z,37.74
2019-04-25T11:29:04.131Z,37.91
2019-04-25T11:30:11.516Z,37.40
2019-04-25T11:31:19.478Z,37.10
2019-04-25T11:32:25.270Z,37.37
2019-04-25T11:33:29.684Z,38.12
2019-04-25T11:34:33.942Z,37.63
2019-04-25T11:35:38.180Z,37.26
2019-04-25T11:36:43.956Z,37.96
2019-04-25T11:37:49.152Z,38.08
2019-04-25T11:39:07.093Z,37.51
2019-04-25T11:40:34.545Z,37.57
2019-04-25T11:41:38.915Z,37.19
2019-04-25T11:42:45.909Z,36.19
2019-04-25T11:43:49.379Z,36.35
2019-04-25T11:44:54.470Z,36.66
2019-04-25T11:45:59.709Z,36.53
2019-04-25T11:47:06.929Z,35.79
2019-04-25T11:48:10.384Z,36.01
2019-04-25T11:49:15.277Z,35.91
2019-04-25T11:50:19.550Z,35.76
2019-04-25T11:51:24.137Z,36.16
2019-04-25T11:52:30.381Z,35.80
2019-04-25T11:53:34.428Z,35.91
2019-04-25T11:54:39.980Z,36.30
2019-04-25T11:55:44.865Z,36.09
2019-04-25T11:56:49.246Z,36.00
2019-04-25T11:57:55.609Z,36.06
2019-04-25T11:59:00.063Z,35.77
2019-04-25T12:00:21.532Z,36.11
2019-04-25T12:01:15.523Z,35.56
2019-04-25T12:02:20.085Z,35.91
2019-04-25T12:03:24.624Z,35.97
2019-04-25T12:04:30.738Z,35.79
2019-04-25T12:05:34.993Z,35.22
2019-04-25T12:06:39.344Z,36.05
2019-04-25T12:07:45.328Z,36.30
2019-04-25T12:08:49.565Z,35.46
2019-04-25T12:09:54.564Z,34.88
2019-04-25T12:11:00.565Z,35.14
2019-04-25T12:12:05.736Z,34.52
2019-04-25T12:13:11.023Z,34.78
2019-04-25T12:14:15.303Z,35.33
2019-04-25T12:15:19.524Z,35.01
2019-04-25T12:16:24.740Z,34.90
2019-04-25T12:17:29.424Z,34.61
2019-04-25T12:18:35.403Z,35.21
2019-04-25T12:19:39.771Z,35.10
2019-04-25T12:20:46.243Z,33.62
2019-04-25T12:21:50.292Z,33.70
2019-04-25T12:23:06.261Z,34.01
2019-04-25T12:24:03.706Z,33.60
2019-04-25T12:25:08.128Z,33.16
2019-04-25T12:26:14.192Z,33.24
2019-04-25T12:27:19.289Z,33.98
2019-04-25T12:28:23.610Z,34.11
2019-04-25T12:29:27.746Z,34.00
2019-04-25T12:30:38.282Z,34.06
2019-04-25T12:31:38.511Z,34.04
2019-04-25T12:32:44.157Z,34.14
2019-04-25T12:33:49.984Z,34.85
2019-04-25T12:34:54.409Z,34.65
2019-04-25T12:35:58.726Z,34.35
2019-04-25T12:37:03.832Z,35.12
2019-04-25T12:38:08.354Z,35.06
2019-04-25T12:39:14.061Z,34.33
2019-04-25T12:40:18.428Z,34.28
2019-04-25T12:41:22.836Z,33.76
2019-04-25T12:42:27.008Z,33.88
2019-04-25T12:43:33.901Z,33.91
2019-04-25T12:44:49.030Z,34.09
2019-04-25T12:46:12.875Z,34.21
2019-04-25T12:48:54.127Z,33.06
2019-04-25T12:49:58.952Z,34.03
2019-04-25T12:51:03.325Z,34.15
2019-04-25T12:52:07.644Z,33.37
2019-04-25T12:53:11.818Z,33.03
2019-04-25T12:54:16.079Z,32.84
2019-04-25T12:55:20.752Z,32.56
2019-04-25T12:56:24.957Z,32.59
2019-04-25T12:57:29.289Z,33.22
2019-04-25T12:58:33.557Z,33.13
2019-04-25T12:59:37.772Z,33.04
2019-04-25T13:00:47.960Z,33.04
2019-04-25T13:01:54.516Z,33.26
2019-04-25T13:02:58.757Z,32.81
2019-04-25T13:04:04.169Z,32.28
2019-04-25T13:05:09.333Z,32.54
2019-04-25T13:06:15.801Z,32.46
2019-04-25T13:07:20.175Z,32.42
2019-04-25T13:08:24.687Z,32.43
2019-04-25T13:09:28.932Z,32.67
2019-04-25T13:10:33.631Z,32.88
2019-04-25T13:11:37.973Z,32.79
2019-04-25T13:12:42.157Z,32.61
2019-04-25T13:13:46.366Z,33.27
2019-04-25T13:14:50.540Z,32.94
2019-04-25T13:15:54.728Z,32.87
2019-04-25T13:17:00.498Z,33.16
2019-04-25T13:18:04.677Z,32.72
2019-04-25T13:19:15.904Z,32.69
2019-04-25T13:20:15.141Z,32.40
2019-04-25T13:21:19.978Z,32.86
2019-04-25T13:22:24.143Z,32.03
2019-04-25T13:23:28.479Z,32.46
2019-04-25T13:24:32.839Z,32.97
2019-04-25T13:25:38.729Z,32.82
2019-04-25T13:26:47.484Z,32.77
2019-04-25T13:27:53.290Z,32.70
2019-04-25T13:29:15.552Z,31.77
2019-04-25T13:30:24.054Z,32.61
2019-04-25T13:31:38.548Z,32.56
2019-04-25T13:32:50.376Z,32.07
2019-04-25T13:34:02.192Z,32.07
2019-04-25T13:35:20.162Z,31.98
2019-04-25T13:36:24.431Z,32.36
2019-04-25T13:37:28.667Z,32.62
2019-04-25T13:38:33.018Z,32.22
2019-04-25T13:39:37.582Z,32.37
2019-04-25T13:40:41.750Z,32.68
2019-04-25T13:41:46.088Z,32.49
2019-04-25T13:42:50.260Z,31.36
2019-04-25T13:43:54.683Z,31.60
2019-04-25T13:45:00.566Z,31.21
2019-04-25T13:46:04.884Z,31.40
2019-04-25T13:47:09.125Z,31.43
2019-04-25T13:48:13.381Z,30.61
2019-04-25T13:49:17.585Z,30.61
2019-04-25T13:50:23.957Z,31.32
2019-04-25T13:51:28.325Z,31.32
2019-04-25T13:52:33.525Z,31.44
2019-04-25T13:53:38.469Z,31.35
2019-04-25T13:54:43.634Z,31.35
2019-04-25T13:55:48.135Z,31.15
2019-04-25T13:56:53.400Z,30.96
2019-04-25T13:57:58.766Z,30.88
2019-04-25T13:59:04.302Z,30.68
2019-04-25T14:00:08.620Z,30.83
2019-04-25T14:01:17.053Z,30.99
2019-04-25T14:02:24.617Z,30.98
2019-04-25T14:03:30.282Z,31.44
2019-04-25T14:04:35.744Z,31.61
2019-04-25T14:05:40.472Z,31.58
2019-04-25T14:06:45.862Z,31.35
2019-04-25T14:07:50.134Z,31.47
2019-04-25T14:08:54.542Z,31.62
2019-04-25T14:09:59.105Z,31.80
2019-04-25T14:11:05.139Z,31.56
2019-04-25T14:12:10.126Z,31.75
2019-04-25T14:13:14.607Z,32.00
2019-04-25T14:14:19.313Z,31.16
2019-04-25T14:15:25.279Z,31.25